createdAt,value
2018-07-27T00:01:20.622Z,27.70
2018-07-27T00:03:48.747Z,27.80
2018-07-27T00:06:16.834Z,27.80
2018-07-27T00:08:44.931Z,27.80
2018-07-27T00:11:13.013Z,27.80
2018-07-27T00:13:41.466Z,27.80
2018-07-27T00:16:09.542Z,27.80
2018-07-27T00:18:37.614Z,27.80
2018-07-27T00:21:06.026Z,27.80
2018-07-27T00:23:34.142Z,27.80
2018-07-27T00:26:02.272Z,27.80
2018-07-27T00:28:30.722Z,27.80
2018-07-27T00:30:58.790Z,27.80
2018-07-27T00:33:26.966Z,27.80
2018-07-27T00:35:55.409Z,27.90
2018-07-27T00:38:23.467Z,27.90
2018-07-27T00:40:51.517Z,27.90
2018-07-27T00:43:19.962Z,27.90
2018-07-27T00:45:48.070Z,27.90
2018-07-27T00:48:16.157Z,28.00
2018-07-27T00:50:44.223Z,28.00
2018-07-27T00:53:12.338Z,28.10
2018-07-27T00:55:40.855Z,28.10
2018-07-27T00:58:09.210Z,28.20
2018-07-27T01:00:37.282Z,28.20
2018-07-27T01:03:05.359Z,28.20
2018-07-27T01:05:33.423Z,28.20
2018-07-27T01:08:01.567Z,28.20
2018-07-27T01:10:29.639Z,28.20
2018-07-27T01:12:58.066Z,28.20
2018-07-27T01:15:26.174Z,28.20
2018-07-27T01:22:50.035Z,28.20
2018-07-27T01:25:18.130Z,28.20
2018-07-27T01:27:46.272Z,28.20
2018-07-27T01:30:14.350Z,28.10
2018-07-27T01:32:42.417Z,28.10
2018-07-27T01:35:10.730Z,28.10
2018-07-27T01:37:38.891Z,28.10
2018-07-27T01:40:07.279Z,28.00
2018-07-27T01:42:35.702Z,28.00
2018-07-27T01:45:03.834Z,28.00
2018-07-27T01:47:31.946Z,27.90
2018-07-27T01:52:28.234Z,27.90
2018-07-27T01:54:56.314Z,27.80
2018-07-27T01:57:24.684Z,27.80
2018-07-27T01:59:52.846Z,27.70
2018-07-27T02:02:21.143Z,27.70
2018-07-27T02:04:49.477Z,27.60
2018-07-27T02:07:17.573Z,27.60
2018-07-27T02:09:45.636Z,27.60
2018-07-27T02:12:13.706Z,27.50
2018-07-27T02:14:41.909Z,27.40
2018-07-27T02:17:10.003Z,27.40
2018-07-27T02:19:38.098Z,27.30
2018-07-27T02:22:06.186Z,27.30
2018-07-27T02:24:34.256Z,27.20
2018-07-27T02:27:02.670Z,27.20
2018-07-27T02:29:30.747Z,27.20
2018-07-27T02:31:58.812Z,27.10
2018-07-27T02:34:26.898Z,27.00
2018-07-27T02:36:55.031Z,27.00
2018-07-27T02:39:23.099Z,26.90
2018-07-27T02:41:51.431Z,26.90
2018-07-27T02:44:19.554Z,26.80
2018-07-27T02:46:47.627Z,26.70
2018-07-27T02:49:15.717Z,26.70
2018-07-27T02:51:43.783Z,26.60
2018-07-27T02:54:11.870Z,26.60
2018-07-27T02:56:40.251Z,26.50
2018-07-27T02:59:08.319Z,26.50
2018-07-27T03:01:36.594Z,26.40
2018-07-27T03:04:04.731Z,26.40
2018-07-27T03:06:32.812Z,26.30
2018-07-27T03:09:00.947Z,26.30
2018-07-27T03:11:29.039Z,26.20
2018-07-27T03:13:57.131Z,26.20
2018-07-27T03:16:25.211Z,26.10
2018-07-27T03:18:53.615Z,26.10
2018-07-27T03:21:21.741Z,26.10
2018-07-27T03:23:49.851Z,26.10
2018-07-27T03:26:18.025Z,26.00
2018-07-27T03:28:46.102Z,25.90
2018-07-27T03:31:14.275Z,25.90
2018-07-27T03:33:42.659Z,25.80
2018-07-27T03:36:10.741Z,25.80
2018-07-27T03:38:40.462Z,25.80
2018-07-27T03:41:09.238Z,25.70
2018-07-27T03:43:37.312Z,25.60
2018-07-27T03:46:05.378Z,25.60
2018-07-27T03:48:33.466Z,25.60
2018-07-27T03:51:01.542Z,25.60
2018-07-27T03:53:29.629Z,25.60
2018-07-27T03:55:57.974Z,25.60
2018-07-27T03:58:26.062Z,25.60
2018-07-27T04:00:54.136Z,25.50
2018-07-27T04:03:22.508Z,25.50
2018-07-27T04:05:50.575Z,25.50
2018-07-27T04:08:18.646Z,25.50
2018-07-27T04:10:46.718Z,25.50
2018-07-27T04:13:14.791Z,25.50
2018-07-27T04:15:42.857Z,25.50
2018-07-27T04:18:11.235Z,25.50
2018-07-27T04:20:39.338Z,25.50
2018-07-27T04:23:07.377Z,25.50
2018-07-27T04:25:35.494Z,25.60
2018-07-27T04:28:03.594Z,25.60
2018-07-27T04:30:31.684Z,25.60
2018-07-27T04:33:00.079Z,25.70
2018-07-27T04:35:28.150Z,25.70
2018-07-27T04:37:56.250Z,25.70
2018-07-27T04:40:24.590Z,25.70
2018-07-27T04:42:52.703Z,25.60
2018-07-27T04:45:20.794Z,25.60
2018-07-27T04:47:48.871Z,25.50
2018-07-27T04:50:16.962Z,25.50
2018-07-27T04:52:45.038Z,25.40
2018-07-27T04:55:13.358Z,25.40
2018-07-27T04:57:41.418Z,25.40
2018-07-27T05:00:09.514Z,25.40
2018-07-27T05:02:37.850Z,25.40
2018-07-27T05:05:06.052Z,25.40
2018-07-27T05:07:34.193Z,25.40
2018-07-27T05:10:06.526Z,25.40
2018-07-27T05:12:34.778Z,25.40
2018-07-27T05:15:02.915Z,25.40
2018-07-27T05:17:31.309Z,25.50
2018-07-27T05:19:59.379Z,25.50
2018-07-27T05:22:27.481Z,25.50
2018-07-27T05:24:55.579Z,25.60
2018-07-27T05:27:23.713Z,25.60
2018-07-27T05:29:51.822Z,25.60
2018-07-27T05:34:48.235Z,25.70
2018-07-27T05:37:16.306Z,25.80
2018-07-27T05:39:44.531Z,25.90
2018-07-27T05:42:12.678Z,26.00
2018-07-27T05:44:40.750Z,26.00
2018-07-27T05:47:09.133Z,26.10
2018-07-27T05:49:37.280Z,26.20
2018-07-27T05:52:05.350Z,26.30
2018-07-27T05:54:33.716Z,26.40
2018-07-27T05:57:01.842Z,26.50
2018-07-27T05:59:29.990Z,26.50
2018-07-27T06:01:58.027Z,26.70
2018-07-27T06:04:26.094Z,26.70
2018-07-27T06:06:54.160Z,26.80
2018-07-27T06:09:22.674Z,26.90
2018-07-27T06:11:50.742Z,26.90
2018-07-27T06:14:18.815Z,27.00
2018-07-27T06:16:46.898Z,27.00
2018-07-27T06:19:14.970Z,27.10
2018-07-27T06:21:43.106Z,27.20
2018-07-27T06:24:11.274Z,27.30
2018-07-27T06:26:39.303Z,27.40
2018-07-27T06:29:07.428Z,27.50
2018-07-27T06:31:35.818Z,27.60
2018-07-27T06:34:03.891Z,27.70
2018-07-27T06:36:31.974Z,27.80
2018-07-27T06:39:00.381Z,27.80
2018-07-27T06:41:28.443Z,27.90
2018-07-27T06:43:56.578Z,28.00
2018-07-27T06:46:24.762Z,28.10
2018-07-27T06:48:53.007Z,28.10
2018-07-27T06:51:21.109Z,28.20
2018-07-27T06:53:49.490Z,28.30
2018-07-27T06:56:17.578Z,28.40
2018-07-27T06:58:45.721Z,28.40
2018-07-27T07:01:14.114Z,28.50
2018-07-27T07:03:42.480Z,28.60
2018-07-27T07:06:10.555Z,28.70
2018-07-27T07:08:38.950Z,28.80
2018-07-27T07:11:07.059Z,28.90
2018-07-27T07:13:35.134Z,28.90
2018-07-27T07:16:03.472Z,29.00
2018-07-27T07:18:31.671Z,29.00
2018-07-27T07:20:59.754Z,29.20
2018-07-27T07:23:28.267Z,29.20
2018-07-27T07:25:56.766Z,29.30
2018-07-27T07:28:24.428Z,29.30
2018-07-27T07:30:52.822Z,29.30
2018-07-27T07:33:20.969Z,29.30
2018-07-27T07:35:49.025Z,29.40
2018-07-27T07:40:45.226Z,29.50
2018-07-27T07:43:13.405Z,29.50
2018-07-27T07:45:41.762Z,29.50
2018-07-27T07:48:10.347Z,29.50
2018-07-27T07:50:38.426Z,29.60
2018-07-27T07:53:06.922Z,29.70
2018-07-27T07:55:35.118Z,29.80
2018-07-27T07:58:03.546Z,29.90
2018-07-27T08:00:31.998Z,30.10
2018-07-27T08:05:27.994Z,30.30
2018-07-27T08:07:56.067Z,30.40
2018-07-27T08:10:24.338Z,30.50
2018-07-27T08:12:52.434Z,30.60
2018-07-27T08:15:20.814Z,30.70
2018-07-27T08:20:17.047Z,30.70
2018-07-27T08:22:45.138Z,30.80
2018-07-27T08:25:13.388Z,30.80
2018-07-27T08:27:41.562Z,31.00
2018-07-27T08:30:14.095Z,31.10
2018-07-27T08:32:42.238Z,31.20
2018-07-27T08:37:38.259Z,31.40
2018-07-27T08:40:06.929Z,31.50
2018-07-27T08:42:35.019Z,31.60
2018-07-27T08:45:03.095Z,31.70
2018-07-27T08:47:31.151Z,31.80
2018-07-27T08:49:59.267Z,32.00
2018-07-27T08:54:55.585Z,32.30
2018-07-27T08:57:23.674Z,32.40
2018-07-27T08:59:52.116Z,32.50
2018-07-27T09:02:20.189Z,32.60
2018-07-27T09:04:48.266Z,32.70
2018-07-27T09:07:16.643Z,32.70
2018-07-27T09:09:44.734Z,32.80
2018-07-27T09:12:12.822Z,32.90
2018-07-27T09:14:41.210Z,33.00
2018-07-27T09:17:09.316Z,33.10
2018-07-27T09:19:37.378Z,33.10
2018-07-27T09:22:05.786Z,33.20
2018-07-27T09:24:34.001Z,33.40
2018-07-27T09:27:01.974Z,33.40
2018-07-27T09:29:30.410Z,33.50
2018-07-27T09:31:58.579Z,33.60
2018-07-27T09:34:26.946Z,33.60
2018-07-27T09:36:55.258Z,33.70
2018-07-27T09:39:23.342Z,33.80
2018-07-27T09:41:51.416Z,33.80
2018-07-27T09:44:19.798Z,33.90
2018-07-27T09:46:47.858Z,34.00
2018-07-27T09:49:15.930Z,34.00
2018-07-27T09:51:45.873Z,34.00
2018-07-27T09:54:13.922Z,34.10
2018-07-27T09:56:41.991Z,34.10
2018-07-27T09:59:10.336Z,34.20
2018-07-27T10:01:38.634Z,34.30
2018-07-27T10:04:06.703Z,34.40
2018-07-27T10:06:35.132Z,34.50
2018-07-27T10:09:04.586Z,34.60
2018-07-27T10:11:32.908Z,34.70
2018-07-27T10:14:01.439Z,34.80
2018-07-27T10:16:29.531Z,34.80
2018-07-27T10:18:57.598Z,34.90
2018-07-27T10:21:25.960Z,35.00
2018-07-27T10:23:54.759Z,35.00
2018-07-27T10:26:22.882Z,35.00
2018-07-27T10:28:50.977Z,35.20
2018-07-27T10:31:19.117Z,35.30
2018-07-27T10:33:47.865Z,35.40
2018-07-27T10:36:15.998Z,35.50
2018-07-27T10:38:45.030Z,35.60
2018-07-27T10:41:12.975Z,35.70
2018-07-27T10:43:41.471Z,35.80
2018-07-27T10:46:09.521Z,35.80
2018-07-27T10:48:37.582Z,35.80
2018-07-27T10:51:05.760Z,35.90
2018-07-27T10:53:33.819Z,36.00
2018-07-27T10:56:01.890Z,36.00
2018-07-27T10:58:29.970Z,35.90
2018-07-27T11:00:58.064Z,36.00
2018-07-27T11:03:26.170Z,36.00
2018-07-27T11:05:54.532Z,36.00
2018-07-27T11:08:22.743Z,36.10
2018-07-27T11:10:50.807Z,36.10
2018-07-27T11:13:19.166Z,36.20
2018-07-27T11:15:47.229Z,36.30
2018-07-27T11:18:15.331Z,36.40
2018-07-27T11:20:43.770Z,36.50
2018-07-27T11:23:12.977Z,36.60
2018-07-27T11:25:42.990Z,36.60
2018-07-27T11:28:11.984Z,36.60
2018-07-27T11:30:40.130Z,36.70
2018-07-27T11:33:10.834Z,36.70
2018-07-27T11:35:38.986Z,36.80
2018-07-27T11:38:07.058Z,36.80
2018-07-27T11:40:35.129Z,36.90
2018-07-27T11:43:08.598Z,37.00
2018-07-27T11:45:36.780Z,37.00
2018-07-27T11:48:04.874Z,36.90
2018-07-27T11:50:33.226Z,36.90
2018-07-27T11:53:01.407Z,36.90
2018-07-27T11:55:29.506Z,36.80
2018-07-27T11:57:57.854Z,36.90
2018-07-27T12:00:26.012Z,37.00
2018-07-27T12:02:54.091Z,37.00
2018-07-27T12:05:22.166Z,37.00
2018-07-27T12:07:50.235Z,37.10
2018-07-27T12:10:18.307Z,37.20
2018-07-27T12:12:46.690Z,37.20
2018-07-27T12:15:15.116Z,37.30
2018-07-27T12:17:42.982Z,37.40
2018-07-27T12:20:11.327Z,37.50
2018-07-27T12:22:39.406Z,37.40
2018-07-27T12:25:07.476Z,37.40
2018-07-27T12:27:35.855Z,37.40
2018-07-27T12:30:04.230Z,37.40
2018-07-27T12:32:32.395Z,37.30
2018-07-27T12:35:00.781Z,37.20
2018-07-27T12:37:28.948Z,37.30
2018-07-27T12:42:26.052Z,37.40
2018-07-27T12:44:54.110Z,37.40
2018-07-27T12:47:22.158Z,37.40
2018-07-27T12:49:50.538Z,37.50
2018-07-27T12:52:18.613Z,37.50
2018-07-27T12:54:46.771Z,37.50
2018-07-27T12:57:15.162Z,37.50
2018-07-27T12:59:43.254Z,37.60
2018-07-27T13:02:11.339Z,37.70
2018-07-27T13:04:39.655Z,37.70
2018-07-27T13:07:07.881Z,37.80
2018-07-27T13:09:35.961Z,37.90
2018-07-27T13:12:04.311Z,37.90
2018-07-27T13:17:00.446Z,38.00
2018-07-27T13:19:28.839Z,38.00
2018-07-27T13:21:56.952Z,38.00
2018-07-27T13:26:53.467Z,38.10
2018-07-27T13:29:21.582Z,38.10
2018-07-27T13:31:50.953Z,38.20
2018-07-27T13:37:35.944Z,38.30
2018-07-27T13:40:05.264Z,38.20
2018-07-27T13:42:34.864Z,38.10
2018-07-27T13:45:02.967Z,38.20
2018-07-27T13:47:31.062Z,38.20
2018-07-27T13:49:59.143Z,38.40
2018-07-27T13:52:27.432Z,38.40
2018-07-27T13:54:55.826Z,38.50
2018-07-27T13:57:24.321Z,38.60
2018-07-27T13:59:52.390Z,38.60
2018-07-27T14:02:20.488Z,38.60
2018-07-27T14:04:48.836Z,38.70
2018-07-27T14:07:16.919Z,38.80
2018-07-27T14:09:44.990Z,38.90
2018-07-27T14:12:13.360Z,38.90
2018-07-27T14:14:41.468Z,39.00
2018-07-27T14:17:09.542Z,39.10
2018-07-27T14:19:37.966Z,39.40
2018-07-27T14:22:06.726Z,39.50
2018-07-27T14:24:34.807Z,39.50
2018-07-27T14:27:03.208Z,39.50
2018-07-27T14:29:31.369Z,39.50
2018-07-27T14:31:59.477Z,39.50
2018-07-27T14:34:27.802Z,39.70
2018-07-27T14:36:55.897Z,39.80
2018-07-27T14:39:24.047Z,40.00
2018-07-27T14:41:52.163Z,40.20
2018-07-27T14:44:20.255Z,40.20
2018-07-27T14:46:48.330Z,40.30
2018-07-27T14:51:45.306Z,40.50
2018-07-27T14:54:14.334Z,40.70
2018-07-27T14:56:43.158Z,40.80
2018-07-27T14:59:12.522Z,40.70
2018-07-27T15:01:41.154Z,40.60
2018-07-27T15:04:10.346Z,40.70
2018-07-27T15:06:38.633Z,40.70
2018-07-27T15:09:08.645Z,40.80
2018-07-27T15:11:36.990Z,41.00
2018-07-27T15:14:05.069Z,41.10
2018-07-27T15:16:33.151Z,41.30
2018-07-27T15:19:01.643Z,41.60
2018-07-27T15:21:29.758Z,41.60
2018-07-27T15:26:26.258Z,41.60
2018-07-27T15:28:54.358Z,41.70
2018-07-27T15:31:22.459Z,41.80
2018-07-27T15:33:51.006Z,42.00
2018-07-27T15:36:19.109Z,42.20
2018-07-27T15:38:47.183Z,42.30
2018-07-27T15:41:15.613Z,42.20
2018-07-27T15:43:43.774Z,42.50
2018-07-27T15:46:11.878Z,42.90
2018-07-27T15:48:40.334Z,42.90
2018-07-27T15:51:08.498Z,43.30
2018-07-27T15:53:36.596Z,43.60
2018-07-27T15:56:04.986Z,43.80
2018-07-27T15:58:33.107Z,43.60
2018-07-27T16:01:01.218Z,43.50
2018-07-27T16:03:29.305Z,43.80
2018-07-27T16:05:57.442Z,44.00
2018-07-27T16:08:26.496Z,44.20
2018-07-27T16:10:54.608Z,44.30
2018-07-27T16:13:22.718Z,44.60
2018-07-27T16:15:50.807Z,44.80
2018-07-27T16:18:19.238Z,44.80
2018-07-27T16:20:47.310Z,45.10
2018-07-27T16:23:15.582Z,45.50
2018-07-27T16:25:43.955Z,45.80
2018-07-27T16:28:12.861Z,46.20
2018-07-27T16:30:40.918Z,46.40
2018-07-27T16:33:09.996Z,46.80
2018-07-27T16:35:45.976Z,46.90
2018-07-27T16:38:14.331Z,46.70
2018-07-27T16:40:42.414Z,46.10
2018-07-27T16:43:11.046Z,45.90
2018-07-27T16:45:39.437Z,46.10
2018-07-27T16:48:07.515Z,46.20
2018-07-27T16:50:35.584Z,46.20
2018-07-27T16:53:03.907Z,45.80
2018-07-27T16:55:32.033Z,44.60
2018-07-27T16:58:00.101Z,43.30
2018-07-27T17:00:28.214Z,42.10
2018-07-27T17:02:56.311Z,41.10
2018-07-27T17:05:24.384Z,40.20
2018-07-27T17:07:52.694Z,39.50
2018-07-27T17:10:20.791Z,38.90
2018-07-27T17:12:48.877Z,38.60
2018-07-27T17:15:17.427Z,38.30
2018-07-27T17:17:45.510Z,37.90
2018-07-27T17:20:13.590Z,37.60
2018-07-27T17:22:41.951Z,37.40
2018-07-27T17:25:10.360Z,37.10
2018-07-27T17:30:07.650Z,36.70
2018-07-27T17:32:36.099Z,36.40
2018-07-27T17:35:04.326Z,36.20
2018-07-27T17:37:32.434Z,36.10
2018-07-27T17:40:00.525Z,36.00
2018-07-27T17:42:28.582Z,35.90
2018-07-27T17:44:56.951Z,35.80
2018-07-27T17:47:25.148Z,35.60
2018-07-27T17:49:53.251Z,35.50
2018-07-27T17:52:21.678Z,35.40
2018-07-27T17:54:49.950Z,35.30
2018-07-27T17:57:18.030Z,35.20
2018-07-27T17:59:46.414Z,35.10
2018-07-27T18:02:14.482Z,35.10
2018-07-27T18:04:42.554Z,35.00
2018-07-27T18:07:10.761Z,34.90
2018-07-27T18:09:38.716Z,34.80
2018-07-27T18:12:06.871Z,34.80
2018-07-27T18:14:34.963Z,34.80
2018-07-27T18:17:03.046Z,34.80
2018-07-27T18:19:31.140Z,34.80
2018-07-27T18:21:59.272Z,34.80
2018-07-27T18:24:27.339Z,34.70
2018-07-27T18:26:55.593Z,34.60
2018-07-27T18:29:23.999Z,34.50
2018-07-27T18:31:52.145Z,34.40
2018-07-27T18:34:20.263Z,34.30
2018-07-27T18:36:48.363Z,34.30
2018-07-27T18:39:16.398Z,34.30
2018-07-27T18:41:44.462Z,34.30
2018-07-27T18:44:12.778Z,34.20
2018-07-27T18:49:09.088Z,34.10
2018-07-27T18:51:37.470Z,33.90
2018-07-27T18:54:05.842Z,33.80
2018-07-27T18:56:33.992Z,33.80
2018-07-27T18:59:02.041Z,33.70
2018-07-27T19:01:30.107Z,33.80
2018-07-27T19:03:58.201Z,33.80
2018-07-27T19:06:26.550Z,33.80
2018-07-27T19:08:54.668Z,33.70
2018-07-27T19:11:23.309Z,33.70
2018-07-27T19:16:19.638Z,33.60
2018-07-27T19:21:16.040Z,33.30
2018-07-27T19:23:44.111Z,33.10
2018-07-27T19:26:12.200Z,33.10
2018-07-27T19:28:40.581Z,33.10
2018-07-27T19:31:08.959Z,33.10
2018-07-27T19:36:04.925Z,33.00
2018-07-27T19:38:33.004Z,32.90
2018-07-27T19:41:01.091Z,32.90
2018-07-27T19:43:29.522Z,32.80
2018-07-27T19:45:57.638Z,32.70
2018-07-27T19:48:25.718Z,32.60
2018-07-27T19:50:53.966Z,32.50
2018-07-27T19:53:22.035Z,32.50
2018-07-27T19:55:50.111Z,32.50
2018-07-27T19:58:18.463Z,32.50
2018-07-27T20:00:46.535Z,32.50
2018-07-27T20:03:14.613Z,32.40
2018-07-27T20:05:42.987Z,32.30
2018-07-27T20:08:11.062Z,32.20
2018-07-27T20:10:39.362Z,32.10
2018-07-27T20:13:07.431Z,31.90
2018-07-27T20:15:35.479Z,31.90
2018-07-27T20:18:03.555Z,31.80
2018-07-27T20:20:31.639Z,31.70
2018-07-27T20:22:59.799Z,31.60
2018-07-27T20:25:27.858Z,31.50
2018-07-27T20:27:56.352Z,31.50
2018-07-27T20:30:24.451Z,31.40
2018-07-27T20:32:52.526Z,31.30
2018-07-27T20:35:20.902Z,31.30
2018-07-27T20:37:48.985Z,31.20
2018-07-27T20:40:17.208Z,31.20
2018-07-27T20:42:45.350Z,31.20
2018-07-27T20:45:13.422Z,31.10
2018-07-27T20:47:41.547Z,31.10
2018-07-27T20:50:10.626Z,31.10
2018-07-27T20:52:38.730Z,31.00
2018-07-27T20:55:06.867Z,31.00
2018-07-27T20:57:35.290Z,30.90
2018-07-27T21:00:03.359Z,30.90
2018-07-27T21:02:31.430Z,30.80
2018-07-27T21:04:59.811Z,30.70
2018-07-27T21:07:27.887Z,30.60
2018-07-27T21:09:55.992Z,30.60
2018-07-27T21:12:24.090Z,30.60
2018-07-27T21:14:52.242Z,30.50
2018-07-27T21:17:20.367Z,30.40
2018-07-27T21:19:48.706Z,30.30
2018-07-27T21:22:16.785Z,30.30
2018-07-27T21:24:44.854Z,30.30
2018-07-27T21:27:13.351Z,30.20
2018-07-27T21:29:41.509Z,30.10
2018-07-27T21:32:09.775Z,30.00
2018-07-27T21:34:37.847Z,29.90
2018-07-27T21:37:05.935Z,29.90
2018-07-27T21:39:34.007Z,30.00
2018-07-27T21:42:02.221Z,29.90
2018-07-27T21:44:30.660Z,30.00
2018-07-27T21:46:58.723Z,30.00
2018-07-27T21:49:27.054Z,29.90
2018-07-27T21:51:55.107Z,29.90
2018-07-27T21:54:23.186Z,29.80
2018-07-27T21:56:51.516Z,29.80
2018-07-27T21:59:19.579Z,29.70
2018-07-27T22:01:47.635Z,29.60
2018-07-27T22:04:16.097Z,29.60
2018-07-27T22:06:44.561Z,29.50
2018-07-27T22:09:12.794Z,29.40
2018-07-27T22:11:41.096Z,29.40
2018-07-27T22:14:09.199Z,29.20
2018-07-27T22:16:37.286Z,29.10
2018-07-27T22:21:33.606Z,28.80
2018-07-27T22:24:01.755Z,28.70
2018-07-27T22:26:29.855Z,28.60
2018-07-27T22:28:57.970Z,28.50
2018-07-27T22:31:26.034Z,28.30
2018-07-27T22:36:22.326Z,28.10
2018-07-27T22:38:50.419Z,28.10
2018-07-27T22:41:18.506Z,28.00
2018-07-27T22:43:46.619Z,27.90
2018-07-27T22:46:14.706Z,27.70
2018-07-27T22:48:43.118Z,27.50
2018-07-27T22:51:11.262Z,27.40
2018-07-27T22:53:39.407Z,27.30
2018-07-27T22:56:07.559Z,27.20
2018-07-27T23:01:04.178Z,27.00
2018-07-27T23:03:32.559Z,27.00
2018-07-27T23:06:00.634Z,26.90
2018-07-27T23:08:28.710Z,26.70
2018-07-27T23:10:57.075Z,26.70
2018-07-27T23:13:25.151Z,26.60
2018-07-27T23:15:53.290Z,26.60
2018-07-27T23:18:21.902Z,26.50
2018-07-27T23:20:49.968Z,26.50
2018-07-27T23:23:18.042Z,26.40
2018-07-27T23:25:46.142Z,26.40
2018-07-27T23:28:14.227Z,26.40
2018-07-27T23:30:42.302Z,26.30
2018-07-27T23:33:11.027Z,26.20
2018-07-27T23:35:39.131Z,25.90
2018-07-27T23:38:07.211Z,25.60
2018-07-27T23:40:35.298Z,25.60
2018-07-27T23:43:03.381Z,25.80
2018-07-27T23:47:59.700Z,26.50
2018-07-27T23:50:27.775Z,26.70
2018-07-27T23:52:56.267Z,26.70
2018-07-27T23:55:24.960Z,26.50
2018-07-27T23:57:53.091Z,26.30
